createdAt,value
2023-04-26T00:00:01.229Z,3.97
2023-04-26T00:00:13.007Z,3.22
2023-04-26T00:00:24.709Z,4.40
2023-04-26T00:00:36.128Z,4.88
2023-04-26T00:00:47.586Z,4.68
2023-04-26T00:01:03.210Z,2.92
2023-04-26T00:01:14.678Z,2.78
2023-04-26T00:01:26.137Z,5.22
2023-04-26T00:01:37.576Z,5.70
2023-04-26T00:01:49.065Z,5.07
2023-04-26T00:02:00.545Z,3.47
2023-04-26T00:02:12.457Z,3.03
2023-04-26T00:02:24.110Z,3.35
2023-04-26T00:02:37.285Z,3.75
2023-04-26T00:02:49.298Z,6.03
2023-04-26T00:03:01.071Z,6.03
2023-04-26T00:03:12.777Z,5.30
2023-04-26T00:03:24.417Z,4.00
2023-04-26T00:03:36.040Z,4.05
2023-04-26T00:03:48.853Z,4.40
2023-04-26T00:04:00.922Z,3.65
2023-04-26T00:04:13.466Z,3.28
2023-04-26T00:04:26.794Z,3.13
2023-04-26T00:04:41.809Z,3.35
2023-04-26T00:04:56.924Z,2.80
2023-04-26T00:05:10.321Z,5.07
2023-04-26T00:05:24.955Z,5.78
2023-04-26T00:05:36.530Z,4.32
2023-04-26T00:05:48.064Z,3.38
2023-04-26T00:06:00.969Z,3.53
2023-04-26T00:06:12.726Z,3.60
2023-04-26T00:06:24.421Z,4.00
2023-04-26T00:06:37.151Z,3.28
2023-04-26T00:06:48.710Z,2.92
2023-04-26T00:07:01.566Z,3.30
2023-04-26T00:07:17.114Z,3.70
2023-04-26T00:07:28.624Z,4.55
2023-04-26T00:07:43.170Z,5.63
2023-04-26T00:07:57.296Z,6.00
2023-04-26T00:08:08.805Z,5.90
2023-04-26T00:08:20.152Z,4.38
2023-04-26T00:08:32.818Z,3.00
2023-04-26T00:08:45.458Z,2.88
2023-04-26T00:08:56.819Z,2.90
2023-04-26T00:09:11.564Z,4.07
2023-04-26T00:09:23.223Z,4.72
2023-04-26T00:09:34.825Z,4.28
2023-04-26T00:09:46.255Z,3.65
2023-04-26T00:09:59.863Z,3.53
2023-04-26T00:10:11.771Z,2.90
2023-04-26T00:10:23.165Z,3.42
2023-04-26T00:10:34.802Z,3.53
2023-04-26T00:10:46.267Z,3.40
2023-04-26T00:10:57.843Z,3.13
2023-04-26T00:11:09.322Z,3.80
2023-04-26T00:11:20.881Z,3.83
2023-04-26T00:11:32.315Z,4.65
2023-04-26T00:11:43.768Z,4.05
2023-04-26T00:11:56.307Z,4.18
2023-04-26T00:12:13.299Z,4.35
2023-04-26T00:12:28.428Z,4.65
2023-04-26T00:12:39.880Z,3.90
2023-04-26T00:12:51.224Z,3.75
2023-04-26T00:13:03.860Z,3.50
2023-04-26T00:13:15.229Z,3.05
2023-04-26T00:13:26.813Z,2.80
2023-04-26T00:13:38.188Z,2.72
2023-04-26T00:13:49.606Z,4.93
2023-04-26T00:14:00.993Z,5.47
2023-04-26T00:14:12.574Z,5.00
2023-04-26T00:14:24.170Z,2.63
2023-04-26T00:14:35.613Z,2.65
2023-04-26T00:14:47.156Z,3.20
2023-04-26T00:14:58.550Z,3.38
2023-04-26T00:15:10.146Z,3.22
2023-04-26T00:15:21.688Z,3.15
2023-04-26T00:15:34.332Z,2.85
2023-04-26T00:15:45.762Z,3.72
2023-04-26T00:15:57.319Z,4.15
2023-04-26T00:16:08.785Z,5.40
2023-04-26T00:16:20.413Z,3.95
2023-04-26T00:16:33.293Z,4.28
2023-04-26T00:16:45.196Z,4.05
2023-04-26T00:16:57.133Z,4.03
2023-04-26T00:17:10.219Z,3.70
2023-04-26T00:17:23.598Z,3.97
2023-04-26T00:17:35.632Z,4.43
2023-04-26T00:17:47.313Z,3.75
2023-04-26T00:17:58.853Z,3.08
2023-04-26T00:18:11.306Z,3.47
2023-04-26T00:18:22.802Z,3.33
2023-04-26T00:18:34.532Z,2.83
2023-04-26T00:18:45.899Z,3.10
2023-04-26T00:18:57.393Z,3.30
2023-04-26T00:19:08.840Z,3.05
2023-04-26T00:19:20.260Z,3.42
2023-04-26T00:19:31.684Z,3.50
2023-04-26T00:19:43.077Z,2.97
2023-04-26T00:19:54.546Z,3.33
2023-04-26T00:20:06.650Z,2.63
2023-04-26T00:20:18.201Z,4.05
2023-04-26T00:20:30.050Z,3.30
2023-04-26T00:20:41.474Z,2.28
2023-04-26T00:20:52.912Z,3.10
2023-04-26T00:21:04.378Z,3.40
2023-04-26T00:21:16.936Z,2.78
2023-04-26T00:21:28.346Z,3.50
2023-04-26T00:21:40.120Z,4.05
2023-04-26T00:21:51.652Z,4.00
2023-04-26T00:22:03.148Z,3.30
2023-04-26T00:22:15.985Z,3.20
2023-04-26T00:22:27.322Z,3.53
2023-04-26T00:22:39.087Z,3.40
2023-04-26T00:22:50.893Z,2.42
2023-04-26T00:23:02.373Z,3.47
2023-04-26T00:23:13.787Z,3.63
2023-04-26T00:23:25.246Z,4.60
2023-04-26T00:23:36.705Z,4.35
2023-04-26T00:23:48.179Z,4.00
2023-04-26T00:23:59.560Z,2.85
2023-04-26T00:24:11.044Z,2.22
2023-04-26T00:24:22.459Z,2.60
2023-04-26T00:24:35.468Z,2.75
2023-04-26T00:24:46.860Z,2.22
2023-04-26T00:24:58.233Z,2.15
2023-04-26T00:25:09.985Z,2.03
2023-04-26T00:25:21.408Z,1.73
2023-04-26T00:25:32.822Z,1.48
2023-04-26T00:25:44.211Z,2.47
2023-04-26T00:25:58.137Z,2.20
2023-04-26T00:26:09.503Z,2.08
2023-04-26T00:26:20.882Z,2.88
2023-04-26T00:26:33.685Z,3.47
2023-04-26T00:26:45.240Z,2.85
2023-04-26T00:26:56.709Z,2.25
2023-04-26T00:27:08.112Z,3.55
2023-04-26T00:27:19.705Z,4.97
2023-04-26T00:27:31.158Z,5.70
2023-04-26T00:27:42.567Z,4.32
2023-04-26T00:27:54.019Z,2.90
2023-04-26T00:28:05.534Z,2.92
2023-04-26T00:28:18.424Z,2.85
2023-04-26T00:28:30.507Z,3.13
2023-04-26T00:28:41.872Z,3.40
2023-04-26T00:28:53.657Z,3.42
2023-04-26T00:29:05.375Z,2.90
2023-04-26T00:29:16.780Z,3.53
2023-04-26T00:29:31.358Z,3.13
2023-04-26T00:29:50.379Z,2.60
2023-04-26T00:30:01.855Z,2.17
2023-04-26T00:30:18.313Z,2.55
2023-04-26T00:30:29.799Z,2.22
2023-04-26T00:30:43.912Z,2.65
2023-04-26T00:30:55.465Z,2.78
2023-04-26T00:31:08.086Z,2.80
2023-04-26T00:31:19.637Z,1.95
2023-04-26T00:31:31.294Z,3.15
2023-04-26T00:31:42.733Z,3.30
2023-04-26T00:31:54.298Z,3.55
2023-04-26T00:32:06.081Z,2.47
2023-04-26T00:32:18.429Z,2.55
2023-04-26T00:32:31.166Z,1.85
2023-04-26T00:32:43.120Z,2.15
2023-04-26T00:32:54.567Z,3.20
2023-04-26T00:33:06.044Z,2.65
2023-04-26T00:33:17.543Z,2.38
2023-04-26T00:33:30.127Z,1.52
2023-04-26T00:33:42.020Z,1.77
2023-04-26T00:33:53.458Z,1.73
2023-04-26T00:34:05.039Z,2.40
2023-04-26T00:34:16.424Z,2.53
2023-04-26T00:34:37.458Z,3.70
2023-04-26T00:34:48.932Z,2.38
2023-04-26T00:35:00.253Z,2.08
2023-04-26T00:35:11.605Z,2.08
2023-04-26T00:35:25.377Z,1.85
2023-04-26T00:35:37.580Z,1.95
2023-04-26T00:35:49.006Z,3.17
2023-04-26T00:36:00.633Z,3.03
2023-04-26T00:36:13.161Z,1.98
2023-04-26T00:36:24.530Z,2.63
2023-04-26T00:36:35.964Z,2.83
2023-04-26T00:36:47.368Z,2.80
2023-04-26T00:36:58.771Z,2.08
2023-04-26T00:37:10.508Z,3.35
2023-04-26T00:37:23.191Z,4.25
2023-04-26T00:37:34.615Z,4.28
2023-04-26T00:37:47.097Z,2.50
2023-04-26T00:37:58.529Z,2.00
2023-04-26T00:38:11.248Z,1.98
2023-04-26T00:38:22.598Z,2.05
2023-04-26T00:38:35.201Z,1.85
2023-04-26T00:38:46.793Z,2.03
2023-04-26T00:38:58.217Z,2.60
2023-04-26T00:39:09.686Z,3.70
2023-04-26T00:39:21.105Z,4.45
2023-04-26T00:39:32.553Z,3.78
2023-04-26T00:39:43.923Z,2.13
2023-04-26T00:39:55.300Z,1.60
2023-04-26T00:40:07.315Z,1.73
2023-04-26T00:40:23.236Z,2.22
2023-04-26T00:40:34.655Z,2.65
2023-04-26T00:40:46.049Z,2.88
2023-04-26T00:40:57.456Z,4.22
2023-04-26T00:41:08.920Z,3.10
2023-04-26T00:41:20.396Z,3.08
2023-04-26T00:41:31.797Z,1.90
2023-04-26T00:41:43.402Z,2.15
2023-04-26T00:41:55.217Z,1.92
2023-04-26T00:42:06.610Z,1.60
2023-04-26T00:42:18.077Z,1.52
2023-04-26T00:42:29.521Z,2.08
2023-04-26T00:42:40.961Z,2.25
2023-04-26T00:42:57.732Z,2.40
2023-04-26T00:43:09.331Z,2.38
2023-04-26T00:43:20.859Z,2.47
2023-04-26T00:43:32.230Z,1.63
2023-04-26T00:43:43.782Z,1.50
2023-04-26T00:43:55.195Z,1.65
2023-04-26T00:44:06.619Z,1.92
2023-04-26T00:44:20.996Z,2.10
2023-04-26T00:44:33.290Z,5.30
2023-04-26T00:44:44.692Z,5.43
2023-04-26T00:44:56.081Z,5.43
2023-04-26T00:45:08.055Z,2.00
2023-04-26T00:45:19.499Z,1.70
2023-04-26T00:45:31.031Z,1.85
2023-04-26T00:45:42.625Z,1.45
2023-04-26T00:45:54.408Z,4.60
2023-04-26T00:46:08.699Z,5.10
2023-04-26T00:46:20.825Z,2.53
2023-04-26T00:46:32.397Z,2.28
2023-04-26T00:46:44.405Z,2.72
2023-04-26T00:46:55.933Z,2.58
2023-04-26T00:47:07.458Z,1.92
2023-04-26T00:47:18.979Z,2.33
2023-04-26T00:47:32.151Z,3.33
2023-04-26T00:47:43.670Z,3.35
2023-04-26T00:47:57.431Z,2.10
2023-04-26T00:48:09.001Z,2.13
2023-04-26T00:48:20.650Z,2.22
2023-04-26T00:48:33.135Z,2.83
2023-04-26T00:48:44.598Z,2.70
2023-04-26T00:48:56.309Z,1.67
2023-04-26T00:49:07.714Z,1.60
2023-04-26T00:49:22.392Z,1.30
2023-04-26T00:49:34.126Z,0.95
2023-04-26T00:49:45.570Z,0.82
2023-04-26T00:49:57.006Z,0.98
2023-04-26T00:50:08.646Z,2.70
2023-04-26T00:50:20.678Z,2.60
2023-04-26T00:50:32.802Z,2.58
2023-04-26T00:50:44.443Z,1.83
2023-04-26T00:50:55.976Z,2.78
2023-04-26T00:51:07.528Z,2.35
2023-04-26T00:51:18.999Z,2.28
2023-04-26T00:51:30.421Z,1.42
2023-04-26T00:51:43.521Z,1.40
2023-04-26T00:51:55.302Z,1.40
2023-04-26T00:52:07.116Z,2.70
2023-04-26T00:52:18.656Z,4.35
2023-04-26T00:52:31.727Z,5.00
2023-04-26T00:52:45.316Z,2.25
2023-04-26T00:52:59.621Z,1.90
2023-04-26T00:53:12.336Z,2.40
2023-04-26T00:53:23.860Z,1.75
2023-04-26T00:53:37.623Z,1.75
2023-04-26T00:53:51.912Z,2.17
2023-04-26T00:54:03.440Z,2.05
2023-04-26T00:54:15.465Z,2.40
2023-04-26T00:54:26.996Z,3.20
2023-04-26T00:54:38.602Z,3.13
2023-04-26T00:54:50.197Z,3.97
2023-04-26T00:55:02.332Z,4.13
2023-04-26T00:55:14.841Z,3.25
2023-04-26T00:55:28.124Z,1.90
2023-04-26T00:55:40.645Z,1.25
2023-04-26T00:55:52.072Z,1.13
2023-04-26T00:56:06.580Z,1.25
2023-04-26T00:56:18.982Z,1.65
2023-04-26T00:56:30.835Z,1.77
2023-04-26T00:56:42.857Z,1.30
2023-04-26T00:56:54.340Z,1.75
2023-04-26T00:57:06.879Z,2.35
2023-04-26T00:57:18.279Z,3.13
2023-04-26T00:57:29.807Z,3.17
2023-04-26T00:57:41.552Z,4.30
2023-04-26T00:57:53.449Z,3.30
2023-04-26T00:58:04.964Z,2.83
2023-04-26T00:58:16.437Z,2.30
2023-04-26T00:58:28.112Z,2.28
2023-04-26T00:58:39.568Z,2.10
2023-04-26T00:58:51.213Z,2.10
2023-04-26T00:59:03.524Z,1.00
2023-04-26T00:59:14.970Z,1.13
2023-04-26T00:59:27.422Z,2.28
2023-04-26T00:59:38.910Z,2.55
2023-04-26T00:59:50.346Z,1.33
2023-04-26T01:00:01.822Z,2.55
2023-04-26T01:00:14.585Z,3.00
2023-04-26T01:00:26.213Z,3.38
2023-04-26T01:00:37.651Z,1.75
2023-04-26T01:00:49.082Z,1.90
2023-04-26T01:01:02.040Z,1.80
2023-04-26T01:01:13.574Z,1.65
2023-04-26T01:01:25.102Z,1.40
2023-04-26T01:01:36.627Z,1.30
2023-04-26T01:01:48.418Z,1.02
2023-04-26T01:01:59.804Z,1.02
2023-04-26T01:02:11.337Z,1.02
2023-04-26T01:02:22.910Z,1.27
2023-04-26T01:02:34.784Z,1.60
2023-04-26T01:02:46.687Z,2.10
2023-04-26T01:02:58.450Z,1.75
2023-04-26T01:03:10.655Z,0.98
2023-04-26T01:03:22.284Z,1.42
2023-04-26T01:03:34.290Z,1.52
2023-04-26T01:03:46.012Z,1.55
2023-04-26T01:03:57.825Z,1.90
2023-04-26T01:04:11.566Z,1.85
2023-04-26T01:04:23.215Z,1.60
2023-04-26T01:04:35.230Z,1.60
2023-04-26T01:04:46.657Z,1.77
2023-04-26T01:04:58.123Z,1.85
2023-04-26T01:05:09.756Z,2.00
2023-04-26T01:05:21.363Z,1.90
2023-04-26T01:05:33.202Z,1.50
2023-04-26T01:05:45.333Z,1.33
2023-04-26T01:05:58.127Z,1.88
2023-04-26T01:06:11.045Z,1.63
2023-04-26T01:06:22.946Z,1.35
2023-04-26T01:06:35.489Z,1.48
2023-04-26T01:06:47.329Z,2.03
2023-04-26T01:07:01.217Z,2.20
2023-04-26T01:07:12.630Z,1.42
2023-04-26T01:07:24.423Z,1.85
2023-04-26T01:07:39.745Z,3.05
2023-04-26T01:07:52.043Z,3.05
2023-04-26T01:08:03.553Z,1.83
2023-04-26T01:08:14.977Z,1.20
2023-04-26T01:08:26.441Z,1.92
2023-04-26T01:08:37.885Z,1.80
2023-04-26T01:08:52.349Z,2.72
2023-04-26T01:09:05.020Z,2.40
2023-04-26T01:09:18.028Z,1.80
2023-04-26T01:09:32.719Z,1.80
2023-04-26T01:09:44.582Z,3.42
2023-04-26T01:09:57.858Z,3.80
2023-04-26T01:10:09.834Z,3.22
2023-04-26T01:10:21.216Z,1.70
2023-04-26T01:10:34.204Z,3.22
2023-04-26T01:10:46.542Z,4.20
2023-04-26T01:10:59.258Z,2.83
2023-04-26T01:11:11.037Z,2.60
2023-04-26T01:11:25.567Z,3.28
2023-04-26T01:11:37.757Z,2.92
2023-04-26T01:11:50.377Z,1.05
2023-04-26T01:12:03.887Z,0.88
2023-04-26T01:12:15.374Z,0.90
2023-04-26T01:12:27.034Z,0.98
2023-04-26T01:12:39.457Z,1.38
2023-04-26T01:12:51.123Z,1.73
2023-04-26T01:13:03.290Z,1.85
2023-04-26T01:13:15.984Z,1.27
2023-04-26T01:13:28.663Z,1.05
2023-04-26T01:13:42.285Z,1.15
2023-04-26T01:13:53.779Z,1.73
2023-04-26T01:14:06.364Z,1.60
2023-04-26T01:14:19.546Z,1.40
2023-04-26T01:14:31.805Z,1.05
2023-04-26T01:14:44.493Z,1.48
2023-04-26T01:14:57.014Z,1.20
2023-04-26T01:15:10.675Z,1.25
2023-04-26T01:15:22.296Z,1.23
2023-04-26T01:15:33.900Z,1.30
2023-04-26T01:15:46.483Z,1.48
2023-04-26T01:15:58.865Z,1.10
2023-04-26T01:16:10.287Z,0.93
2023-04-26T01:16:22.220Z,1.42
2023-04-26T01:16:34.122Z,1.95
2023-04-26T01:16:45.947Z,2.50
2023-04-26T01:16:57.916Z,2.17
2023-04-26T01:17:09.452Z,2.50
2023-04-26T01:17:20.877Z,2.38
2023-04-26T01:17:32.361Z,2.47
2023-04-26T01:17:46.832Z,2.80
2023-04-26T01:17:58.323Z,2.42
2023-04-26T01:18:09.746Z,1.92
2023-04-26T01:18:21.148Z,1.92
2023-04-26T01:18:32.526Z,1.83
2023-04-26T01:18:43.959Z,2.97
2023-04-26T01:18:55.359Z,2.90
2023-04-26T01:19:11.159Z,2.30
2023-04-26T01:19:22.769Z,1.77
2023-04-26T01:19:34.552Z,2.33
2023-04-26T01:19:49.830Z,2.95
2023-04-26T01:20:01.305Z,2.53
2023-04-26T01:20:14.474Z,1.95
2023-04-26T01:20:26.231Z,1.48
2023-04-26T01:20:37.717Z,1.63
2023-04-26T01:20:49.148Z,2.22
2023-04-26T01:21:02.068Z,2.92
2023-04-26T01:21:20.394Z,3.10
2023-04-26T01:21:34.570Z,2.03
2023-04-26T01:21:45.899Z,2.28
2023-04-26T01:21:57.267Z,2.80
2023-04-26T01:22:08.637Z,4.32
2023-04-26T01:22:19.992Z,3.53
2023-04-26T01:22:35.153Z,1.20
2023-04-26T01:22:46.516Z,1.17
2023-04-26T01:22:57.974Z,1.20
2023-04-26T01:23:10.278Z,1.83
2023-04-26T01:23:21.673Z,2.17
2023-04-26T01:23:33.086Z,1.92
2023-04-26T01:23:44.494Z,1.50
2023-04-26T01:23:55.972Z,2.67
2023-04-26T01:24:12.656Z,2.72
2023-04-26T01:24:26.684Z,2.58
2023-04-26T01:24:39.560Z,2.97
2023-04-26T01:24:54.881Z,3.72
2023-04-26T01:25:07.296Z,3.40
2023-04-26T01:25:18.893Z,1.92
2023-04-26T01:25:30.661Z,1.13
2023-04-26T01:25:44.858Z,1.27
2023-04-26T01:25:56.646Z,1.45
2023-04-26T01:26:08.150Z,1.58
2023-04-26T01:26:19.593Z,1.63
2023-04-26T01:26:31.007Z,1.90
2023-04-26T01:26:46.093Z,2.10
2023-04-26T01:26:57.797Z,1.92
2023-04-26T01:27:09.199Z,2.42
2023-04-26T01:27:20.655Z,3.42
2023-04-26T01:27:32.092Z,3.72
2023-04-26T01:27:43.479Z,2.75
2023-04-26T01:27:54.864Z,1.25
2023-04-26T01:28:09.474Z,1.40
2023-04-26T01:28:28.057Z,1.60
2023-04-26T01:28:40.873Z,2.47
2023-04-26T01:28:52.919Z,2.08
2023-04-26T01:29:13.701Z,2.20
2023-04-26T01:29:25.076Z,3.78
2023-04-26T01:29:36.524Z,3.00
2023-04-26T01:29:47.961Z,2.28
2023-04-26T01:29:59.406Z,2.35
2023-04-26T01:30:11.147Z,3.03
2023-04-26T01:30:22.542Z,3.03
2023-04-26T01:30:34.011Z,3.22
2023-04-26T01:30:48.069Z,3.00
2023-04-26T01:31:02.341Z,1.60
2023-04-26T01:31:14.258Z,1.30
2023-04-26T01:31:25.983Z,1.20
2023-04-26T01:31:37.486Z,1.23
2023-04-26T01:31:48.982Z,1.63
2023-04-26T01:32:00.409Z,1.70
2023-04-26T01:32:11.896Z,1.80
2023-04-26T01:32:23.396Z,1.48
2023-04-26T01:32:34.908Z,1.35
2023-04-26T01:32:46.396Z,1.33
2023-04-26T01:32:59.288Z,1.45
2023-04-26T01:33:10.680Z,1.58
2023-04-26T01:33:32.741Z,1.30
2023-04-26T01:33:44.146Z,2.85
2023-04-26T01:33:55.540Z,2.92
2023-04-26T01:34:06.914Z,2.55
2023-04-26T01:34:19.156Z,2.15
2023-04-26T01:34:30.560Z,1.60
2023-04-26T01:34:43.372Z,1.50
2023-04-26T01:34:56.410Z,1.95
2023-04-26T01:35:08.087Z,2.33
2023-04-26T01:35:19.539Z,1.90
2023-04-26T01:35:31.330Z,1.65
2023-04-26T01:35:42.892Z,1.83
2023-04-26T01:35:54.295Z,2.65
2023-04-26T01:36:11.735Z,3.03
2023-04-26T01:36:23.338Z,2.90
2023-04-26T01:36:34.770Z,2.00
2023-04-26T01:36:46.274Z,2.03
2023-04-26T01:36:57.649Z,1.50
2023-04-26T01:37:08.991Z,2.85
2023-04-26T01:37:20.478Z,3.28
2023-04-26T01:37:31.909Z,3.50
2023-04-26T01:37:43.816Z,2.53
2023-04-26T01:37:55.232Z,3.30
2023-04-26T01:38:07.900Z,3.10
2023-04-26T01:38:19.365Z,2.45
2023-04-26T01:38:31.883Z,1.80
2023-04-26T01:38:44.911Z,1.85
2023-04-26T01:38:56.275Z,2.15
2023-04-26T01:39:07.817Z,2.55
2023-04-26T01:39:19.357Z,3.03
2023-04-26T01:39:30.684Z,3.65
2023-04-26T01:39:42.415Z,3.60
2023-04-26T01:39:54.002Z,2.47
2023-04-26T01:40:07.796Z,3.05
2023-04-26T01:40:19.198Z,2.97
2023-04-26T01:40:30.600Z,2.67
2023-04-26T01:40:41.950Z,2.85
2023-04-26T01:40:55.707Z,3.33
2023-04-26T01:41:28.359Z,3.97
2023-04-26T01:41:40.211Z,2.15
2023-04-26T01:41:51.636Z,2.20
2023-04-26T01:42:04.040Z,2.22
2023-04-26T01:42:15.462Z,2.35
2023-04-26T01:42:26.936Z,1.88
2023-04-26T01:42:38.613Z,1.80
2023-04-26T01:42:50.071Z,1.95
2023-04-26T01:43:01.943Z,2.10
2023-04-26T01:43:18.161Z,2.00
2023-04-26T01:43:29.606Z,2.10
2023-04-26T01:43:41.021Z,2.13
2023-04-26T01:43:56.924Z,2.08
2023-04-26T01:44:08.892Z,2.42
2023-04-26T01:44:20.281Z,2.33
2023-04-26T01:44:32.884Z,2.88
2023-04-26T01:44:44.247Z,2.50
2023-04-26T01:44:55.625Z,2.28
2023-04-26T01:45:07.486Z,2.42
2023-04-26T01:45:18.908Z,2.47
2023-04-26T01:45:30.315Z,2.53
2023-04-26T01:45:41.720Z,2.22
2023-04-26T01:45:53.132Z,3.88
2023-04-26T01:46:06.505Z,3.70
2023-04-26T01:46:17.963Z,4.38
2023-04-26T01:46:29.432Z,3.63
2023-04-26T01:46:41.964Z,2.55
2023-04-26T01:46:53.518Z,1.40
2023-04-26T01:47:05.018Z,3.20
2023-04-26T01:47:18.907Z,4.65
2023-04-26T01:47:30.743Z,3.45
2023-04-26T01:47:42.160Z,2.05
2023-04-26T01:47:53.727Z,2.15
2023-04-26T01:48:05.687Z,4.45
2023-04-26T01:48:18.690Z,4.90
2023-04-26T01:48:30.176Z,4.75
2023-04-26T01:48:41.723Z,2.80
2023-04-26T01:48:53.350Z,2.65
2023-04-26T01:49:05.143Z,3.05
2023-04-26T01:49:18.064Z,3.53
2023-04-26T01:49:29.490Z,2.97
2023-04-26T01:49:41.029Z,3.13
2023-04-26T01:49:52.704Z,3.60
2023-04-26T01:50:05.942Z,3.88
2023-04-26T01:50:17.458Z,5.13
2023-04-26T01:50:28.885Z,4.63
2023-04-26T01:50:40.406Z,2.95
2023-04-26T01:50:51.843Z,2.85
2023-04-26T01:51:03.372Z,2.75
2023-04-26T01:51:15.779Z,3.95
2023-04-26T01:51:27.224Z,3.70
2023-04-26T01:51:38.845Z,3.67
2023-04-26T01:51:50.680Z,3.50
2023-04-26T01:52:02.268Z,3.40
2023-04-26T01:52:13.694Z,3.20
2023-04-26T01:52:25.180Z,1.92
2023-04-26T01:52:36.652Z,1.95
2023-04-26T01:52:48.020Z,2.13
2023-04-26T01:52:59.409Z,2.83
2023-04-26T01:53:10.841Z,2.50
2023-04-26T01:53:22.318Z,2.65
2023-04-26T01:53:34.952Z,2.80
2023-04-26T01:53:46.320Z,2.88
2023-04-26T01:53:57.682Z,1.80
2023-04-26T01:54:09.064Z,2.15
2023-04-26T01:54:20.593Z,2.15
2023-04-26T01:54:32.037Z,2.17
2023-04-26T01:54:43.729Z,1.90
2023-04-26T01:54:55.245Z,2.60
2023-04-26T01:55:07.470Z,2.25
2023-04-26T01:55:18.869Z,2.63
2023-04-26T01:55:30.352Z,2.65
2023-04-26T01:55:42.810Z,1.88
2023-04-26T01:55:54.192Z,1.85
2023-04-26T01:56:07.358Z,1.90
2023-04-26T01:56:24.157Z,2.25
2023-04-26T01:56:35.605Z,3.38
2023-04-26T01:56:47.021Z,3.40
2023-04-26T01:56:58.419Z,1.95
2023-04-26T01:57:11.013Z,1.52
2023-04-26T01:57:22.349Z,1.33
2023-04-26T01:57:33.785Z,1.60
2023-04-26T01:57:45.261Z,1.90
2023-04-26T01:57:56.863Z,1.85
2023-04-26T01:58:08.273Z,1.52
2023-04-26T01:58:20.005Z,2.30
2023-04-26T01:58:31.706Z,2.25
2023-04-26T01:58:43.104Z,2.65
2023-04-26T01:58:54.742Z,3.63
2023-04-26T01:59:07.268Z,4.68
2023-04-26T01:59:18.699Z,3.22
2023-04-26T01:59:30.253Z,2.88
2023-04-26T01:59:42.635Z,1.75
2023-04-26T01:59:54.022Z,1.80
2023-04-26T02:00:06.253Z,1.88
2023-04-26T02:00:18.147Z,1.75
2023-04-26T02:00:29.980Z,1.75
2023-04-26T02:00:41.591Z,1.63
2023-04-26T02:00:53.094Z,1.58
2023-04-26T02:01:07.623Z,1.77
2023-04-26T02:01:19.075Z,1.88
2023-04-26T02:01:34.626Z,1.58
2023-04-26T02:01:46.067Z,1.60
2023-04-26T02:01:58.603Z,1.75
2023-04-26T02:02:10.225Z,2.30
2023-04-26T02:02:21.807Z,2.35
2023-04-26T02:02:33.334Z,2.03
2023-04-26T02:02:44.959Z,2.85
2023-04-26T02:02:57.487Z,2.63
2023-04-26T02:03:10.410Z,2.50
2023-04-26T02:03:22.136Z,1.52
2023-04-26T02:03:34.013Z,1.52
2023-04-26T02:03:45.504Z,1.52
2023-04-26T02:03:56.978Z,1.83
2023-04-26T02:04:08.419Z,2.75
2023-04-26T02:04:19.858Z,3.20
2023-04-26T02:04:31.244Z,2.67
2023-04-26T02:04:42.961Z,1.40
2023-04-26T02:04:54.921Z,1.50
2023-04-26T02:05:10.887Z,2.10
2023-04-26T02:05:22.873Z,1.63
2023-04-26T02:05:34.305Z,1.63
2023-04-26T02:05:45.714Z,1.77
2023-04-26T02:05:57.190Z,1.90
2023-04-26T02:06:08.638Z,1.10
2023-04-26T02:06:21.077Z,1.33
2023-04-26T02:06:32.521Z,1.98
2023-04-26T02:06:43.949Z,2.10
2023-04-26T02:06:58.184Z,1.88
2023-04-26T02:07:09.592Z,2.00
2023-04-26T02:07:20.981Z,1.67
2023-04-26T02:07:32.369Z,1.40
2023-04-26T02:07:43.778Z,1.80
2023-04-26T02:07:55.158Z,1.88
2023-04-26T02:08:06.608Z,2.10
2023-04-26T02:08:18.056Z,2.35
2023-04-26T02:08:29.893Z,2.25
2023-04-26T02:08:41.284Z,4.15
2023-04-26T02:08:53.224Z,4.55
2023-04-26T02:09:05.116Z,2.13
2023-04-26T02:09:17.665Z,2.42
2023-04-26T02:09:31.676Z,3.20
2023-04-26T02:09:43.063Z,3.38
2023-04-26T02:09:54.545Z,3.65
2023-04-26T02:10:06.652Z,2.50
2023-04-26T02:10:22.272Z,1.92
2023-04-26T02:10:33.655Z,1.83
2023-04-26T02:10:45.084Z,1.70
2023-04-26T02:10:56.737Z,1.65
2023-04-26T02:11:08.155Z,2.40
2023-04-26T02:11:22.165Z,2.30
2023-04-26T02:11:33.626Z,1.60
2023-04-26T02:11:45.149Z,1.33
2023-04-26T02:11:56.535Z,1.70
2023-04-26T02:12:07.929Z,1.92
2023-04-26T02:12:19.283Z,2.22
2023-04-26T02:12:30.620Z,2.15
2023-04-26T02:12:42.033Z,3.22
2023-04-26T02:12:53.440Z,3.55
2023-04-26T02:13:08.347Z,3.30
2023-04-26T02:13:20.067Z,2.00
2023-04-26T02:13:31.509Z,3.35
2023-04-26T02:13:45.481Z,3.45
2023-04-26T02:13:57.095Z,3.20
2023-04-26T02:14:10.410Z,4.03
2023-04-26T02:14:21.890Z,3.72
2023-04-26T02:14:34.283Z,2.72
2023-04-26T02:14:46.194Z,2.55
2023-04-26T02:14:57.821Z,2.70
2023-04-26T02:15:09.832Z,3.00
2023-04-26T02:15:21.290Z,2.78
2023-04-26T02:15:32.779Z,2.85
2023-04-26T02:15:47.889Z,1.55
2023-04-26T02:15:59.496Z,1.67
2023-04-26T02:16:11.006Z,2.25
2023-04-26T02:16:22.676Z,2.20
2023-04-26T02:16:34.200Z,2.13
2023-04-26T02:16:47.099Z,1.80
2023-04-26T02:16:58.540Z,1.63
2023-04-26T02:17:09.967Z,1.88
2023-04-26T02:17:21.393Z,2.05
2023-04-26T02:17:32.989Z,1.35
2023-04-26T02:17:44.641Z,1.95
2023-04-26T02:17:56.382Z,3.15
2023-04-26T02:18:08.032Z,2.93
2023-04-26T02:18:19.492Z,2.72
2023-04-26T02:18:37.118Z,2.92
2023-04-26T02:18:48.695Z,2.70
2023-04-26T02:19:00.217Z,1.70
2023-04-26T02:19:11.653Z,1.80
2023-04-26T02:19:23.235Z,1.95
2023-04-26T02:19:35.732Z,2.92
2023-04-26T02:19:47.204Z,3.08
2023-04-26T02:20:03.701Z,1.92
2023-04-26T02:20:15.384Z,1.55
2023-04-26T02:20:26.800Z,1.73
2023-04-26T02:20:40.653Z,2.22
2023-04-26T02:20:52.091Z,3.90
2023-04-26T02:21:08.114Z,3.83
2023-04-26T02:21:19.609Z,2.65
2023-04-26T02:21:32.514Z,2.60
2023-04-26T02:21:51.152Z,1.63
2023-04-26T02:22:05.034Z,2.13
2023-04-26T02:22:17.420Z,2.90
2023-04-26T02:22:28.804Z,3.88
2023-04-26T02:22:40.248Z,2.88
2023-04-26T02:22:51.696Z,2.90
2023-04-26T02:23:03.103Z,2.20
2023-04-26T02:23:14.771Z,2.38
2023-04-26T02:23:26.288Z,2.00
2023-04-26T02:23:38.002Z,2.42
2023-04-26T02:23:49.429Z,3.00
2023-04-26T02:24:00.784Z,3.97
2023-04-26T02:24:12.237Z,4.05
2023-04-26T02:24:24.439Z,3.10
2023-04-26T02:24:36.916Z,2.88
2023-04-26T02:24:50.091Z,3.10
2023-04-26T02:25:01.572Z,2.30
2023-04-26T02:25:12.990Z,1.55
2023-04-26T02:25:24.737Z,1.38
2023-04-26T02:25:36.313Z,1.80
2023-04-26T02:25:48.461Z,1.95
2023-04-26T02:25:59.926Z,1.92
2023-04-26T02:26:12.449Z,2.10
2023-04-26T02:26:23.944Z,1.95
2023-04-26T02:26:36.854Z,2.75
2023-04-26T02:26:48.521Z,3.50
2023-04-26T02:26:59.891Z,2.80
2023-04-26T02:27:12.603Z,2.30
2023-04-26T02:27:25.547Z,2.40
2023-04-26T02:27:37.394Z,1.65
2023-04-26T02:27:48.799Z,2.25
2023-04-26T02:28:00.223Z,2.08
2023-04-26T02:28:11.700Z,2.30
2023-04-26T02:28:23.126Z,2.20
2023-04-26T02:28:34.730Z,2.00
2023-04-26T02:28:46.148Z,1.55
2023-04-26T02:28:57.491Z,1.67
2023-04-26T02:29:08.843Z,1.98
2023-04-26T02:29:26.908Z,1.95
2023-04-26T02:29:51.543Z,2.67
2023-04-26T02:30:03.752Z,2.33
2023-04-26T02:30:15.153Z,1.65
2023-04-26T02:30:26.842Z,1.33
2023-04-26T02:30:38.244Z,1.67
2023-04-26T02:30:49.595Z,1.67
2023-04-26T02:31:02.573Z,2.03
2023-04-26T02:31:14.422Z,2.35
2023-04-26T02:31:25.938Z,1.95
2023-04-26T02:31:37.478Z,1.67
2023-04-26T02:31:48.987Z,2.17
2023-04-26T02:32:00.416Z,2.63
2023-04-26T02:32:12.931Z,2.58
2023-04-26T02:32:24.353Z,1.50
2023-04-26T02:32:35.858Z,1.30
2023-04-26T02:32:47.322Z,1.77
2023-04-26T02:32:58.846Z,3.72
2023-04-26T02:33:10.576Z,3.30
2023-04-26T02:33:22.656Z,3.35
2023-04-26T02:33:34.206Z,2.20
2023-04-26T02:33:48.186Z,2.28
2023-04-26T02:33:59.611Z,2.17
2023-04-26T02:34:12.593Z,2.90
2023-04-26T02:34:24.288Z,3.05
2023-04-26T02:34:37.022Z,3.42
2023-04-26T02:34:48.335Z,2.03
2023-04-26T02:34:59.708Z,1.55
2023-04-26T02:35:11.060Z,1.50
2023-04-26T02:35:23.574Z,2.00
2023-04-26T02:35:36.153Z,2.10
2023-04-26T02:35:47.554Z,2.00
2023-04-26T02:35:59.157Z,1.95
2023-04-26T02:36:11.602Z,2.55
2023-04-26T02:36:23.000Z,2.65
2023-04-26T02:36:34.569Z,1.85
2023-04-26T02:36:46.042Z,2.20
2023-04-26T02:36:58.010Z,2.13
2023-04-26T02:37:10.333Z,2.13
2023-04-26T02:37:22.108Z,2.53
2023-04-26T02:37:33.684Z,2.70
2023-04-26T02:37:45.088Z,1.80
2023-04-26T02:37:56.447Z,2.50
2023-04-26T02:38:07.812Z,2.83
2023-04-26T02:38:19.230Z,2.57
2023-04-26T02:38:30.636Z,2.40
2023-04-26T02:38:45.116Z,1.83
2023-04-26T02:38:56.579Z,1.75
2023-04-26T02:39:07.991Z,1.90
2023-04-26T02:39:19.482Z,2.50
2023-04-26T02:39:30.911Z,2.92
2023-04-26T02:39:42.340Z,2.75
2023-04-26T02:39:53.803Z,3.10
2023-04-26T02:40:08.835Z,2.95
2023-04-26T02:40:22.223Z,3.28
2023-04-26T02:40:33.621Z,2.78
2023-04-26T02:40:45.086Z,2.90
2023-04-26T02:41:00.282Z,3.00
2023-04-26T02:41:11.612Z,2.80
2023-04-26T02:41:22.986Z,2.80
2023-04-26T02:41:37.426Z,2.83
2023-04-26T02:41:48.991Z,3.50